Weather at Walters Private Airport [CLOSED]

Public forecast

Using degrees Fahrenheit for public forecast. Weather courtesy of forecast.io.

Closest aviation weather report (METAR) to Walters Private Airport

Closest report is Lawton Fort Sill Regional Airport, 11.7 nm (21.7 km) N.

2023/09/30 02:53 (retrieved 28 minutes ago)

KLAW 300253Z AUTO 14009KT 10SM CLR 28/14 A2995 RMK AO2 SLP127 T02830139 53014

Closest aviation forecast (TAF) to Walters Private Airport

Forecast is more than 12 hours old.

Closest forecast is Waynesville-St. Robert Regional Airport-Forney Field, 364.9 nm (675.8 km) NE.

2023/09/28 13:57 (retrieved 2 days ago)

TAF KTBN 281300Z 2813/2919 VRB06KT 9999 SCT100 QNH3003INS BECMG 2816/2817 26010G15KT 9999 FEW100 QNH2999INS TX31/2817Z TN16/2912Z LAST NO AMDS AFT 2820 NEXT 2913